createdAt,value
2019-03-31T00:02:33.499Z,6.60
2019-03-31T00:05:07.183Z,6.60
2019-03-31T00:07:40.850Z,6.60
2019-03-31T00:10:14.554Z,6.50
2019-03-31T00:12:48.270Z,6.40
2019-03-31T00:15:21.983Z,6.50
2019-03-31T00:17:55.725Z,6.40
2019-03-31T00:20:29.416Z,6.50
2019-03-31T00:23:03.138Z,6.50
2019-03-31T00:25:37.342Z,6.40
2019-03-31T00:28:11.067Z,6.40
2019-03-31T00:30:44.767Z,6.30
2019-03-31T00:33:18.495Z,6.30
2019-03-31T00:35:52.121Z,6.30
2019-03-31T00:38:25.797Z,6.30
2019-03-31T00:40:59.542Z,6.30
2019-03-31T00:43:33.284Z,6.30
2019-03-31T00:46:06.988Z,6.30
2019-03-31T00:48:40.736Z,6.30
2019-03-31T00:51:14.436Z,6.20
2019-03-31T00:53:48.103Z,6.20
2019-03-31T00:56:21.727Z,6.20
2019-03-31T00:58:55.388Z,6.30
2019-03-31T01:01:36.646Z,6.40
2019-03-31T01:04:09.768Z,6.30
2019-03-31T01:06:43.515Z,6.30
2019-03-31T01:09:22.916Z,6.20
2019-03-31T01:11:56.875Z,6.10
2019-03-31T01:14:30.603Z,6.20
2019-03-31T01:17:06.708Z,6.20
2019-03-31T01:19:40.784Z,6.20
2019-03-31T01:22:14.585Z,6.10
2019-03-31T01:24:48.284Z,6.10
2019-03-31T01:27:22.185Z,6.10
2019-03-31T01:29:55.809Z,6.00
2019-03-31T01:32:29.800Z,5.90
2019-03-31T01:35:05.591Z,6.00
2019-03-31T01:37:39.429Z,6.00
2019-03-31T01:40:13.128Z,6.00
2019-03-31T01:42:46.795Z,6.10
2019-03-31T01:45:20.492Z,6.10
2019-03-31T01:47:54.233Z,6.10
2019-03-31T01:50:27.856Z,6.10
2019-03-31T01:53:01.567Z,6.10
2019-03-31T01:55:35.363Z,6.10
2019-03-31T01:58:09.097Z,6.10
2019-03-31T02:00:44.476Z,6.00
2019-03-31T02:03:18.131Z,6.00
2019-03-31T02:05:51.891Z,5.90
2019-03-31T02:08:25.552Z,5.90
2019-03-31T02:10:59.257Z,5.80
2019-03-31T02:13:32.973Z,5.70
2019-03-31T02:16:06.745Z,5.70
2019-03-31T02:18:40.405Z,5.80
2019-03-31T02:21:14.035Z,6.00
2019-03-31T02:23:47.707Z,5.90
2019-03-31T02:26:21.480Z,5.70
2019-03-31T02:28:55.145Z,5.60
2019-03-31T02:31:29.017Z,5.50
2019-03-31T02:34:02.743Z,5.50
2019-03-31T02:36:36.358Z,5.50
2019-03-31T02:39:10.033Z,5.50
2019-03-31T02:41:43.788Z,5.40
2019-03-31T02:44:17.464Z,5.40
2019-03-31T02:46:51.272Z,5.40
2019-03-31T02:49:24.984Z,5.40
2019-03-31T02:51:58.718Z,5.40
2019-03-31T02:54:32.505Z,5.50
2019-03-31T02:57:06.645Z,5.60
2019-03-31T02:59:41.869Z,5.70
2019-03-31T03:02:16.460Z,5.70
2019-03-31T03:04:51.493Z,5.70
2019-03-31T03:07:26.607Z,5.70
2019-03-31T03:10:01.682Z,5.60
2019-03-31T03:12:37.394Z,5.60
2019-03-31T03:15:11.122Z,5.60
2019-03-31T03:17:44.807Z,5.60
2019-03-31T03:20:18.465Z,5.60
2019-03-31T03:22:52.158Z,5.60
2019-03-31T03:25:26.004Z,5.60
2019-03-31T03:27:59.688Z,5.60
2019-03-31T03:30:33.448Z,5.60
2019-03-31T03:33:17.351Z,5.60
2019-03-31T03:35:42.419Z,5.60
2019-03-31T03:38:16.116Z,5.60
2019-03-31T03:40:49.912Z,5.60
2019-03-31T03:43:23.679Z,5.60
2019-03-31T03:45:57.431Z,5.50
2019-03-31T03:48:31.168Z,5.40
2019-03-31T03:51:04.960Z,5.30
2019-03-31T03:53:38.707Z,5.10
2019-03-31T03:56:12.486Z,5.10
2019-03-31T03:58:46.199Z,5.00
2019-03-31T04:01:20.789Z,4.90
2019-03-31T04:03:54.492Z,4.80
2019-03-31T04:06:28.164Z,4.80
2019-03-31T04:09:01.908Z,4.90
2019-03-31T04:11:35.658Z,5.10
2019-03-31T04:14:09.379Z,5.30
2019-03-31T04:16:43.126Z,5.40
2019-03-31T04:19:16.828Z,5.60
2019-03-31T04:21:50.520Z,5.70
2019-03-31T04:24:24.194Z,6.00
2019-03-31T04:26:57.936Z,6.20
2019-03-31T04:29:31.657Z,6.30
2019-03-31T04:32:05.347Z,6.40
2019-03-31T04:34:39.068Z,6.50
2019-03-31T04:37:12.784Z,6.50
2019-03-31T04:39:46.459Z,6.60
2019-03-31T04:42:20.146Z,6.60
2019-03-31T04:44:53.807Z,6.70
2019-03-31T04:47:27.432Z,6.80
2019-03-31T04:50:01.094Z,6.90
2019-03-31T04:52:34.787Z,7.00
2019-03-31T04:55:08.444Z,6.80
2019-03-31T04:57:42.147Z,6.50
2019-03-31T05:00:15.876Z,6.10
2019-03-31T05:02:49.504Z,5.70
2019-03-31T05:05:23.185Z,5.40
2019-03-31T05:07:56.807Z,5.30
2019-03-31T05:10:30.393Z,5.20
2019-03-31T05:13:04.024Z,5.20
2019-03-31T05:15:37.615Z,5.30
2019-03-31T05:18:11.303Z,5.70
2019-03-31T05:20:44.961Z,6.00
2019-03-31T05:23:18.582Z,6.30
2019-03-31T05:25:52.310Z,6.60
2019-03-31T05:28:25.970Z,6.80
2019-03-31T05:30:59.636Z,7.00
2019-03-31T05:33:33.255Z,7.10
2019-03-31T05:36:06.917Z,7.20
2019-03-31T05:38:40.584Z,7.30
2019-03-31T05:41:14.208Z,7.40
2019-03-31T05:43:47.790Z,7.40
2019-03-31T05:46:21.487Z,7.40
2019-03-31T05:48:55.136Z,7.40
2019-03-31T05:51:28.768Z,7.30
2019-03-31T05:54:02.501Z,7.30
2019-03-31T05:56:36.083Z,7.30
2019-03-31T05:59:09.783Z,7.40
2019-03-31T06:01:43.523Z,7.50
2019-03-31T06:04:17.219Z,7.50
2019-03-31T06:06:50.879Z,7.60
2019-03-31T06:09:24.616Z,7.70
2019-03-31T06:11:58.315Z,7.80
2019-03-31T06:14:32.038Z,7.90
2019-03-31T06:17:05.727Z,8.10
2019-03-31T06:19:39.469Z,8.20
2019-03-31T06:22:13.160Z,8.20
2019-03-31T06:24:46.820Z,8.20
2019-03-31T06:27:20.514Z,8.20
2019-03-31T06:29:54.539Z,8.10
2019-03-31T06:32:28.243Z,8.20
2019-03-31T06:35:01.978Z,8.20
2019-03-31T06:37:35.629Z,8.30
2019-03-31T06:40:09.363Z,8.40
2019-03-31T06:42:42.992Z,8.50
2019-03-31T06:45:16.717Z,8.50
2019-03-31T06:47:50.381Z,8.50
2019-03-31T06:50:24.003Z,8.60
2019-03-31T06:52:57.661Z,8.60
2019-03-31T06:55:31.286Z,8.70
2019-03-31T06:58:05.019Z,8.80
2019-03-31T07:00:38.690Z,8.90
2019-03-31T07:03:12.403Z,8.90
2019-03-31T07:05:46.064Z,8.80
2019-03-31T07:08:19.766Z,8.90
2019-03-31T07:10:53.440Z,8.90
2019-03-31T07:13:27.066Z,9.00
2019-03-31T07:16:00.732Z,9.00
2019-03-31T07:18:34.430Z,9.10
2019-03-31T07:21:08.166Z,8.90
2019-03-31T07:23:41.898Z,8.70
2019-03-31T07:26:15.624Z,8.40
2019-03-31T07:28:49.182Z,8.40
2019-03-31T07:31:22.911Z,8.40
2019-03-31T07:33:56.528Z,8.50
2019-03-31T07:36:30.179Z,8.50
2019-03-31T07:39:06.000Z,8.50
2019-03-31T07:41:39.776Z,8.40
2019-03-31T07:44:15.429Z,8.20
2019-03-31T07:46:49.215Z,8.00
2019-03-31T07:49:23.140Z,8.00
2019-03-31T07:51:56.876Z,8.00
2019-03-31T07:54:30.437Z,8.10
2019-03-31T07:57:06.849Z,8.20
2019-03-31T07:59:39.455Z,8.30
2019-03-31T08:02:13.172Z,8.50
2019-03-31T08:04:46.795Z,9.00
2019-03-31T08:07:20.533Z,9.30
2019-03-31T08:09:54.162Z,9.10
2019-03-31T08:12:27.835Z,8.70
2019-03-31T08:15:01.560Z,8.20
2019-03-31T08:17:36.651Z,7.90
2019-03-31T08:20:16.193Z,7.80
2019-03-31T08:22:49.890Z,7.50
2019-03-31T08:25:26.599Z,7.40
2019-03-31T08:28:00.164Z,7.30
2019-03-31T08:30:33.841Z,7.20
2019-03-31T08:33:07.557Z,7.10
2019-03-31T08:35:47.476Z,6.90
2019-03-31T08:38:16.730Z,6.90
2019-03-31T08:40:50.350Z,7.00
2019-03-31T08:43:24.006Z,7.00
2019-03-31T08:45:57.954Z,6.90
2019-03-31T08:48:31.690Z,7.00
2019-03-31T08:51:05.458Z,7.00
2019-03-31T08:53:39.194Z,7.10
2019-03-31T08:56:12.756Z,7.20
2019-03-31T08:58:46.488Z,7.30
2019-03-31T09:01:21.915Z,7.40
2019-03-31T09:03:55.608Z,7.60
2019-03-31T09:06:29.339Z,7.80
2019-03-31T09:09:03.370Z,7.90
2019-03-31T09:11:37.100Z,7.90
2019-03-31T09:14:10.756Z,8.10
2019-03-31T09:16:44.500Z,8.30
2019-03-31T09:19:18.136Z,8.50
2019-03-31T09:21:51.787Z,8.40
2019-03-31T09:24:25.416Z,8.20
2019-03-31T09:26:59.145Z,8.30
2019-03-31T09:29:32.852Z,9.30
2019-03-31T09:32:06.524Z,10.20
2019-03-31T09:34:40.158Z,10.50
2019-03-31T09:37:13.835Z,10.80
2019-03-31T09:39:47.439Z,11.10
2019-03-31T09:42:21.139Z,11.20
2019-03-31T09:44:54.803Z,11.60
2019-03-31T09:47:28.507Z,11.50
2019-03-31T09:50:02.140Z,11.70
2019-03-31T09:52:35.955Z,11.70
2019-03-31T09:55:10.098Z,11.80
2019-03-31T09:57:43.818Z,12.30
2019-03-31T10:00:36.651Z,13.00
2019-03-31T10:03:10.404Z,13.00
2019-03-31T10:05:47.593Z,13.40
2019-03-31T10:08:21.997Z,13.40
2019-03-31T10:10:55.024Z,13.30
2019-03-31T10:13:28.683Z,13.60
2019-03-31T10:16:02.324Z,13.70
2019-03-31T10:18:36.064Z,14.00
2019-03-31T10:21:09.693Z,14.50
2019-03-31T10:23:43.434Z,14.70
2019-03-31T10:26:31.155Z,14.40
2019-03-31T10:28:52.467Z,14.20
2019-03-31T10:31:26.046Z,13.00
2019-03-31T10:33:59.643Z,12.20
2019-03-31T10:36:43.736Z,12.20
2019-03-31T10:39:09.342Z,12.50
2019-03-31T10:41:43.055Z,12.70
2019-03-31T10:44:16.716Z,13.00
2019-03-31T10:46:50.411Z,13.30
2019-03-31T10:49:24.081Z,13.50
2019-03-31T10:51:57.755Z,13.40
2019-03-31T10:54:31.381Z,13.20
2019-03-31T10:57:05.108Z,13.10
2019-03-31T10:59:38.867Z,12.90
2019-03-31T11:02:12.596Z,13.00
2019-03-31T11:04:46.303Z,13.10
2019-03-31T11:07:20.038Z,12.90
2019-03-31T11:09:53.748Z,12.60
2019-03-31T11:12:27.436Z,12.80
2019-03-31T11:15:01.140Z,12.60
2019-03-31T11:17:34.884Z,12.80
2019-03-31T11:20:08.619Z,12.70
2019-03-31T11:22:47.065Z,12.80
2019-03-31T11:25:24.970Z,12.80
2019-03-31T11:27:56.112Z,12.80
2019-03-31T11:30:29.911Z,12.90
2019-03-31T11:33:07.165Z,13.00
2019-03-31T11:35:38.983Z,12.80
2019-03-31T11:38:12.777Z,12.80
2019-03-31T11:40:46.571Z,12.80
2019-03-31T11:43:20.297Z,12.70
2019-03-31T11:45:53.932Z,12.70
2019-03-31T11:48:27.681Z,12.50
2019-03-31T11:51:01.381Z,12.80
2019-03-31T11:53:34.975Z,12.80
2019-03-31T11:56:08.605Z,12.50
2019-03-31T11:58:42.257Z,12.40
2019-03-31T12:01:16.398Z,12.50
2019-03-31T12:03:49.932Z,12.50
2019-03-31T12:06:23.664Z,12.50
2019-03-31T12:08:57.335Z,12.40
2019-03-31T12:11:31.072Z,12.70
2019-03-31T12:14:05.190Z,12.60
2019-03-31T12:16:38.921Z,12.70
2019-03-31T12:19:12.583Z,12.70
2019-03-31T12:21:46.213Z,12.70
2019-03-31T12:24:20.254Z,12.30
2019-03-31T12:26:53.888Z,12.50
2019-03-31T12:29:27.561Z,12.90
2019-03-31T12:32:01.307Z,13.20
2019-03-31T12:34:35.049Z,13.40
2019-03-31T12:37:08.940Z,12.90
2019-03-31T12:39:42.727Z,12.60
2019-03-31T12:42:16.310Z,12.20
2019-03-31T12:44:50.036Z,11.90
2019-03-31T12:47:23.628Z,11.40
2019-03-31T12:49:57.349Z,10.90
2019-03-31T12:52:31.139Z,10.80
2019-03-31T12:55:05.668Z,10.30
2019-03-31T12:57:39.308Z,10.20
2019-03-31T13:00:13.457Z,10.00
2019-03-31T13:02:47.221Z,9.70
2019-03-31T13:05:20.919Z,10.10
2019-03-31T13:07:56.724Z,10.70
2019-03-31T13:10:29.999Z,10.70
2019-03-31T13:13:03.829Z,10.30
2019-03-31T13:15:37.870Z,10.20
2019-03-31T13:18:11.602Z,10.20
2019-03-31T13:20:45.265Z,9.80
2019-03-31T13:23:19.124Z,9.80
2019-03-31T13:25:52.835Z,10.20
2019-03-31T13:28:26.492Z,10.30
2019-03-31T13:31:00.116Z,10.30
2019-03-31T13:33:33.895Z,10.00
2019-03-31T13:36:07.563Z,10.10
2019-03-31T13:38:41.147Z,10.60
2019-03-31T13:41:14.776Z,11.00
2019-03-31T13:43:48.372Z,11.30
2019-03-31T13:46:22.066Z,11.00
2019-03-31T13:48:55.922Z,10.70
2019-03-31T13:51:29.637Z,10.20
2019-03-31T13:54:03.359Z,10.00
2019-03-31T13:56:37.307Z,9.50
2019-03-31T13:59:11.220Z,9.40
2019-03-31T14:01:45.044Z,9.70
2019-03-31T14:04:18.808Z,9.70
2019-03-31T14:06:52.439Z,9.50
2019-03-31T14:09:26.034Z,9.40
2019-03-31T14:11:59.731Z,9.50
2019-03-31T14:14:33.383Z,9.90
2019-03-31T14:17:06.950Z,10.50
2019-03-31T14:19:40.611Z,10.90
2019-03-31T14:22:14.308Z,11.20
2019-03-31T14:24:47.990Z,11.10
2019-03-31T14:27:21.623Z,10.80
2019-03-31T14:29:55.235Z,10.40
2019-03-31T14:32:28.981Z,10.10
2019-03-31T14:35:02.634Z,9.80
2019-03-31T14:37:36.365Z,9.80
2019-03-31T14:40:10.096Z,9.60
2019-03-31T14:42:43.838Z,9.50
2019-03-31T14:45:31.369Z,9.40
2019-03-31T14:48:05.798Z,9.20
2019-03-31T14:50:39.927Z,9.10
2019-03-31T14:53:13.647Z,9.00
2019-03-31T14:55:47.676Z,9.00
2019-03-31T14:58:21.371Z,9.00
2019-03-31T15:00:55.035Z,9.00
2019-03-31T15:03:28.660Z,9.00
2019-03-31T15:06:02.389Z,8.90
2019-03-31T15:08:36.012Z,8.80
2019-03-31T15:11:09.743Z,8.70
2019-03-31T15:13:43.377Z,8.60
2019-03-31T15:16:17.095Z,8.50
2019-03-31T15:18:50.829Z,8.50
2019-03-31T15:21:24.545Z,8.50
2019-03-31T15:23:58.247Z,8.50
2019-03-31T15:26:31.976Z,8.50
2019-03-31T15:29:05.777Z,8.40
2019-03-31T15:31:39.597Z,8.50
2019-03-31T15:37:09.392Z,8.60
2019-03-31T15:39:43.021Z,8.60
2019-03-31T15:42:16.829Z,8.60
2019-03-31T15:44:50.523Z,8.50
2019-03-31T15:47:24.184Z,8.50
2019-03-31T15:49:57.907Z,8.50
2019-03-31T15:52:31.528Z,8.50
2019-03-31T15:55:08.397Z,8.50
2019-03-31T15:57:42.039Z,8.50
2019-03-31T16:00:16.502Z,8.50
2019-03-31T16:02:50.230Z,8.40
2019-03-31T16:05:23.781Z,8.40
2019-03-31T16:07:57.442Z,8.30
2019-03-31T16:10:31.068Z,8.30
2019-03-31T16:13:04.787Z,8.30
2019-03-31T16:15:38.439Z,8.30
2019-03-31T16:18:12.092Z,8.20
2019-03-31T16:20:45.791Z,8.20
2019-03-31T16:23:19.526Z,8.10
2019-03-31T16:25:57.419Z,8.20
2019-03-31T16:28:30.961Z,8.10
2019-03-31T16:31:04.782Z,8.00
2019-03-31T16:33:38.397Z,8.00
2019-03-31T16:36:12.045Z,8.00
2019-03-31T16:38:45.667Z,7.90
2019-03-31T16:41:19.328Z,7.90
2019-03-31T16:43:53.091Z,7.80
2019-03-31T16:46:27.263Z,7.80
2019-03-31T16:49:00.880Z,7.70
2019-03-31T16:51:34.519Z,7.60
2019-03-31T16:54:08.153Z,7.50
2019-03-31T16:56:41.842Z,7.40
2019-03-31T16:59:15.588Z,7.30
2019-03-31T17:01:49.227Z,7.30
2019-03-31T17:04:22.965Z,7.20
2019-03-31T17:06:56.640Z,7.20
2019-03-31T17:09:30.251Z,7.20
2019-03-31T17:12:03.899Z,7.10
2019-03-31T17:14:37.524Z,7.10
2019-03-31T17:17:11.170Z,7.10
2019-03-31T17:19:44.866Z,7.00
2019-03-31T17:22:18.529Z,6.90
2019-03-31T17:24:52.212Z,6.90
2019-03-31T17:27:25.900Z,6.80
2019-03-31T17:29:59.524Z,6.70
2019-03-31T17:32:33.143Z,6.70
2019-03-31T17:35:08.273Z,6.60
2019-03-31T17:37:41.973Z,6.60
2019-03-31T17:40:15.694Z,6.60
2019-03-31T17:42:49.388Z,6.60
2019-03-31T17:45:23.047Z,6.50
2019-03-31T17:47:56.669Z,6.50
2019-03-31T17:50:30.323Z,6.50
2019-03-31T17:53:04.207Z,6.40
2019-03-31T17:55:37.976Z,6.30
2019-03-31T17:58:11.547Z,6.30
2019-03-31T18:00:45.245Z,6.30
2019-03-31T18:03:18.907Z,6.20
2019-03-31T18:05:52.571Z,6.10
2019-03-31T18:08:26.192Z,6.10
2019-03-31T18:10:59.852Z,6.10
2019-03-31T18:13:33.473Z,6.00
2019-03-31T18:16:07.205Z,6.00
2019-03-31T18:18:40.899Z,6.00
2019-03-31T18:21:14.561Z,6.00
2019-03-31T18:23:48.214Z,6.00
2019-03-31T18:26:21.833Z,5.90
2019-03-31T18:28:55.489Z,5.70
2019-03-31T18:31:29.193Z,5.70
2019-03-31T18:34:02.921Z,5.50
2019-03-31T18:36:37.327Z,5.40
2019-03-31T18:39:11.111Z,5.40
2019-03-31T18:41:44.767Z,5.30
2019-03-31T18:44:18.474Z,5.20
2019-03-31T18:46:52.192Z,5.20
2019-03-31T18:49:25.739Z,5.10
2019-03-31T18:51:59.380Z,5.10
2019-03-31T18:54:50.616Z,5.10
2019-03-31T18:57:25.908Z,5.10
2019-03-31T19:00:01.240Z,5.00
2019-03-31T19:02:45.320Z,5.00
2019-03-31T19:05:29.560Z,5.00
2019-03-31T19:08:13.839Z,5.00
2019-03-31T19:11:07.422Z,5.00
2019-03-31T19:13:55.152Z,4.80
2019-03-31T19:16:41.756Z,4.70
2019-03-31T19:19:22.749Z,4.70
2019-03-31T19:21:58.031Z,4.60
2019-03-31T19:24:49.773Z,4.70
2019-03-31T19:27:30.773Z,4.70
2019-03-31T19:30:26.076Z,4.70
2019-03-31T19:33:04.638Z,4.70
2019-03-31T19:35:56.126Z,4.80
2019-03-31T19:38:31.461Z,4.80
2019-03-31T19:41:09.299Z,4.90
2019-03-31T19:43:47.185Z,4.80
2019-03-31T19:46:22.476Z,4.80
2019-03-31T19:48:57.736Z,4.80
2019-03-31T19:51:33.033Z,4.80
2019-03-31T19:54:11.065Z,4.70
2019-03-31T19:57:02.876Z,4.70
2019-03-31T19:59:54.420Z,4.70
2019-03-31T20:02:38.371Z,4.80
2019-03-31T20:05:22.907Z,4.90
2019-03-31T20:08:14.530Z,4.80
2019-03-31T20:10:52.575Z,4.70
2019-03-31T20:13:39.771Z,4.70
2019-03-31T20:16:15.031Z,4.70
2019-03-31T20:18:53.339Z,4.60
2019-03-31T20:21:32.568Z,4.60
2019-03-31T20:24:11.012Z,4.70
2019-03-31T20:26:52.340Z,4.70
2019-03-31T20:29:43.568Z,4.90
2019-03-31T20:32:18.801Z,5.00
2019-03-31T20:34:56.895Z,4.90
2019-03-31T20:37:32.128Z,4.80
2019-03-31T20:40:11.016Z,4.70
2019-03-31T20:43:02.635Z,4.60
2019-03-31T20:45:36.253Z,4.60
2019-03-31T20:48:10.071Z,4.50
2019-03-31T20:50:43.687Z,4.40
2019-03-31T20:53:17.511Z,4.40
2019-03-31T20:55:51.132Z,4.40
2019-03-31T20:58:24.873Z,4.40
2019-03-31T21:00:58.747Z,4.40
2019-03-31T21:03:32.345Z,4.40
2019-03-31T21:06:07.194Z,4.30
2019-03-31T21:08:40.838Z,4.40
2019-03-31T21:11:14.537Z,4.40
2019-03-31T21:13:48.275Z,4.40
2019-03-31T21:16:21.977Z,4.50
2019-03-31T21:18:55.681Z,4.50
2019-03-31T21:21:29.288Z,4.40
2019-03-31T21:24:02.941Z,4.50
2019-03-31T21:26:36.628Z,4.50
2019-03-31T21:29:10.275Z,4.40
2019-03-31T21:31:43.752Z,4.40
2019-03-31T21:34:17.497Z,4.40
2019-03-31T21:36:51.111Z,4.30
2019-03-31T21:39:24.909Z,4.30
2019-03-31T21:41:58.630Z,4.20
2019-03-31T21:44:32.354Z,4.10
2019-03-31T21:47:05.967Z,4.10
2019-03-31T21:49:39.618Z,4.10
2019-03-31T21:52:13.242Z,4.00
2019-03-31T21:54:46.759Z,4.20
2019-03-31T21:57:20.380Z,4.20
2019-03-31T21:59:54.037Z,4.20
2019-03-31T22:02:27.652Z,4.10
2019-03-31T22:05:01.308Z,4.20
2019-03-31T22:07:35.003Z,4.20
2019-03-31T22:10:08.869Z,4.20
2019-03-31T22:12:42.496Z,4.20
2019-03-31T22:15:16.235Z,4.20
2019-03-31T22:17:49.772Z,4.10
2019-03-31T22:20:23.353Z,4.00
2019-03-31T22:22:56.900Z,4.00
2019-03-31T22:25:30.560Z,4.00
2019-03-31T22:28:04.176Z,4.00
2019-03-31T22:30:37.824Z,4.00
2019-03-31T22:33:11.448Z,3.90
2019-03-31T22:35:46.811Z,3.90
2019-03-31T22:38:20.352Z,3.90
2019-03-31T22:40:53.931Z,3.90
2019-03-31T22:43:27.766Z,3.90
2019-03-31T22:46:01.420Z,3.90
2019-03-31T22:48:35.043Z,3.90
2019-03-31T22:51:08.721Z,3.90
2019-03-31T22:53:42.412Z,3.90
2019-03-31T22:56:16.139Z,3.80
2019-03-31T22:58:49.863Z,3.90
2019-03-31T23:01:23.479Z,3.90
2019-03-31T23:03:57.218Z,3.90
2019-03-31T23:06:30.832Z,3.90
2019-03-31T23:09:06.302Z,3.80
2019-03-31T23:11:39.996Z,3.70
2019-03-31T23:14:13.658Z,3.70
2019-03-31T23:16:47.275Z,3.70
2019-03-31T23:19:20.856Z,3.80
2019-03-31T23:21:54.486Z,3.80
2019-03-31T23:24:28.217Z,3.70
2019-03-31T23:27:01.765Z,3.70
2019-03-31T23:29:35.351Z,3.70
2019-03-31T23:32:09.031Z,3.70
2019-03-31T23:34:42.615Z,3.60
2019-03-31T23:37:16.155Z,3.50
2019-03-31T23:39:49.799Z,3.50
2019-03-31T23:42:23.350Z,3.50
2019-03-31T23:44:56.931Z,3.60
2019-03-31T23:47:30.558Z,3.60
2019-03-31T23:50:04.994Z,3.60
2019-03-31T23:52:38.688Z,3.60
2019-03-31T23:55:12.417Z,3.50
2019-03-31T23:57:46.046Z,3.40
